Time;durP1;ratioP1;P1;durP2;ratioP2;P2;SDS_P1;SDS_P2;PMS_P1;PMS_P2;Temp;Humidity;BMP_temperature;BMP_pressure;BME280_temperature;BME280_humidity;BME280_pressure;Samples;Min_cycle;Max_cycle;Signal;HPM_P1;HPM_P2
2022/08/08 00:01:08;;;;;;;5.30;3.50;;;;;;;10.82;70.80;100587.18;213507;1274;141933;-65
2022/08/08 00:06:29;;;;;;;3.50;2.90;;;;;;;10.72;70.98;100584.57;213397;1276;140667;-65
2022/08/08 00:11:47;;;;;;;3.20;2.80;;;;;;;10.66;71.03;100575.16;213843;1274;140438;-64
2022/08/08 00:17:32;;;;;;;4.50;3.30;;;;;;;10.65;71.37;100570.73;213012;1274;141984;-64
2022/08/08 00:23:09;;;;;;;3.10;2.80;;;;;;;10.66;71.48;100573.92;213969;1274;141034;-64
2022/08/08 00:28:17;;;;;;;4.20;3.80;;;;;;;10.57;71.46;100577.05;214332;1274;139376;-65
2022/08/08 00:33:48;;;;;;;4.00;3.60;;;;;;;10.48;71.72;100570.65;214220;1274;139187;-64
2022/08/08 00:39:14;;;;;;;3.20;3.00;;;;;;;10.44;71.59;100568.25;214469;1276;140475;-65
2022/08/08 00:44:47;;;;;;;3.70;3.10;;;;;;;10.41;71.83;100568.09;213896;1276;141641;-65
2022/08/08 00:50:30;;;;;;;4.00;3.30;;;;;;;10.46;72.12;100566.59;214368;1276;140990;-65
2022/08/08 00:55:52;;;;;;;4.00;3.40;;;;;;;10.49;72.40;100570.97;214691;1274;139562;-62
2022/08/08 01:01:21;;;;;;;4.20;3.00;;;;;;;10.49;72.20;100572.56;214115;1274;140630;-66
2022/08/08 01:07:18;;;;;;;6.10;2.90;;;;;;;10.47;71.91;100573.20;215527;1274;141131;-64
2022/08/08 01:13:17;;;;;;;3.00;2.20;;;;;;;10.40;71.80;100575.77;216330;1274;141084;-64
2022/08/08 01:18:59;;;;;;;3.10;2.90;;;;;;;10.28;71.91;100579.09;215479;1274;140837;-64
2022/08/08 01:24:43;;;;;;;3.30;3.00;;;;;;;10.24;72.06;100580.73;215871;1274;140216;-64
2022/08/08 01:30:05;;;;;;;3.70;2.90;;;;;;;10.18;71.86;100579.71;215816;1272;141796;-65
2022/08/08 01:35:37;;;;;;;4.90;3.10;;;;;;;10.18;72.06;100583.48;215664;1273;140651;-65
2022/08/08 01:40:51;;;;;;;3.90;3.30;;;;;;;10.20;72.17;100581.85;215296;1274;139761;-66
2022/08/08 01:46:11;;;;;;;4.40;3.40;;;;;;;10.15;72.19;100579.38;215081;1274;1341131;-66
2022/08/08 01:51:40;;;;;;;3.20;2.90;;;;;;;10.03;71.97;100579.44;215215;1274;140376;-66
2022/08/08 01:57:18;;;;;;;3.50;3.30;;;;;;;9.89;72.09;100578.66;214736;1274;139719;-64
2022/08/08 02:02:39;;;;;;;14.40;3.30;;;;;;;9.80;72.39;100585.86;215336;1274;140580;-65
2022/08/08 02:08:02;;;;;;;5.10;3.50;;;;;;;9.85;72.70;100588.73;214123;1274;140997;-67
2022/08/08 02:13:21;;;;;;;5.60;3.70;;;;;;;9.89;72.94;100588.86;213841;1274;142095;-66
2022/08/08 02:18:52;;;;;;;4.40;3.80;;;;;;;9.91;72.76;100593.11;214127;1274;140819;-65
2022/08/08 02:24:19;;;;;;;4.40;4.00;;;;;;;9.83;72.70;100597.56;213913;1272;150113;-65
2022/08/08 02:29:34;;;;;;;3.70;3.40;;;;;;;9.70;72.72;100597.32;213584;1274;139716;-64
2022/08/08 02:35:37;;;;;;;3.00;2.80;;;;;;;9.55;72.55;100597.08;214256;1276;143476;-66
2022/08/08 02:41:16;;;;;;;2.70;2.50;;;;;;;9.43;73.06;100608.87;214173;1273;141219;-65
2022/08/08 02:47:07;;;;;;;4.90;3.60;;;;;;;9.46;73.10;100610.59;214250;1274;141719;-65
2022/08/08 02:52:35;;;;;;;3.50;3.20;;;;;;;9.46;73.39;100611.08;215102;1274;141410;-66
2022/08/08 02:58:24;;;;;;;4.10;3.00;;;;;;;9.46;73.56;100606.77;215219;1274;140102;-67
2022/08/08 03:03:50;;;;;;;3.20;2.90;;;;;;;9.46;73.54;100608.81;214620;1274;140866;-65
2022/08/08 03:09:42;;;;;;;3.00;2.70;;;;;;;9.47;73.47;100611.59;214859;1274;140414;-66
2022/08/08 03:14:50;;;;;;;4.30;3.20;;;;;;;9.47;73.31;100611.59;216159;1273;140798;-66
2022/08/08 03:20:14;;;;;;;3.30;3.10;;;;;;;9.43;73.63;100611.86;215910;1274;139865;-65
2022/08/08 03:25:25;;;;;;;3.00;2.80;;;;;;;9.38;73.63;100609.89;215268;1274;139788;-65
2022/08/08 03:30:41;;;;;;;3.50;3.20;;;;;;;9.34;73.42;100608.41;216105;1274;140720;-65
2022/08/08 03:35:51;;;;;;;2.80;2.60;;;;;;;9.41;73.71;100608.38;214589;1274;140355;-65
2022/08/08 03:40:55;;;;;;;6.10;3.20;;;;;;;9.50;73.91;100615.02;215204;1274;139548;-66
2022/08/08 03:46:06;;;;;;;2.70;2.50;;;;;;;9.61;74.09;100619.15;214315;1274;140527;-64
2022/08/08 03:51:11;;;;;;;6.50;3.10;;;;;;;9.89;74.61;100618.27;214455;1274;139388;-64
2022/08/08 03:56:18;;;;;;;4.20;3.00;;;;;;;10.19;73.81;100624.39;214314;1274;140113;-65
2022/08/08 04:01:36;;;;;;;4.00;3.70;;;;;;;10.33;73.90;100629.95;214540;1274;141710;-65
2022/08/08 04:07:00;;;;;;;3.20;3.00;;;;;;;10.47;73.83;100634.02;213603;1274;140889;-64
2022/08/08 04:12:05;;;;;;;3.90;3.50;;;;;;;10.59;73.84;100633.59;214754;1274;142644;-65
2022/08/08 04:17:14;;;;;;;4.50;3.90;;;;;;;11.00;73.38;100635.89;213441;1272;141823;-64
2022/08/08 04:22:37;;;;;;;6.10;3.30;;;;;;;11.77;72.73;100636.74;214413;1274;141221;-65
2022/08/08 04:27:41;;;;;;;4.20;3.10;;;;;;;12.44;72.25;100637.41;214264;1274;142174;-64
2022/08/08 04:33:06;;;;;;;4.40;2.50;;;;;;;12.68;71.96;100637.27;213514;1274;140468;-64
2022/08/08 04:38:12;;;;;;;;;;;;;;;12.74;71.50;100636.75;214256;1274;140332;-65
2022/08/08 04:43:24;;;;;;;2.90;2.70;;;;;;;12.85;71.70;100639.96;214430;1274;126108;-65
2022/08/08 04:48:47;;;;;;;3.00;2.70;;;;;;;12.79;71.89;100645.29;215605;1274;220907;-66
2022/08/08 04:53:50;;;;;;;3.80;3.00;;;;;;;12.81;72.02;100646.62;215329;1273;140636;-66
2022/08/08 04:59:14;;;;;;;3.30;2.90;;;;;;;12.86;72.26;100649.83;215480;1274;141094;-65
2022/08/08 05:04:18;;;;;;;4.30;3.00;;;;;;;12.98;72.45;100647.92;215842;1276;141208;-65
2022/08/08 05:09:22;;;;;;;5.00;3.20;;;;;;;13.05;72.45;100648.74;215966;1274;140079;-65
2022/08/08 05:14:29;;;;;;;3.60;3.30;;;;;;;13.09;72.76;100646.88;215003;1274;141587;-65
2022/08/08 05:19:34;;;;;;;3.40;2.90;;;;;;;13.24;72.97;100643.29;216114;1274;140332;-66
2022/08/08 05:24:58;;;;;;;3.10;2.90;;;;;;;13.88;72.70;100648.92;215231;1274;140563;-66
2022/08/08 05:30:02;;;;;;;6.20;3.70;;;;;;;15.32;71.89;100648.48;214854;1274;140395;-65
2022/08/08 05:35:08;;;;;;;7.60;3.50;;;;;;;16.69;70.70;100652.91;215012;1273;140129;-65
2022/08/08 05:40:16;;;;;;;3.00;2.80;;;;;;;18.71;68.36;100649.60;214863;1273;140316;-65
2022/08/08 05:45:23;;;;;;;3.10;2.90;;;;;;;19.59;67.39;100648.27;214661;1274;140372;-65
2022/08/08 05:50:48;;;;;;;7.30;2.90;;;;;;;21.87;64.02;100661.55;214439;1274;139514;-64
2022/08/08 05:56:13;;;;;;;3.90;2.90;;;;;;;22.79;63.13;100668.86;215129;1272;141445;-65
2022/08/08 06:01:18;;;;;;;3.50;2.30;;;;;;;22.68;61.94;100670.77;214322;1274;139394;-64
2022/08/08 06:06:42;;;;;;;9.70;3.30;;;;;;;22.87;60.01;100678.00;214520;1274;140339;-64
2022/08/08 06:11:54;;;;;;;2.90;2.30;;;;;;;22.71;60.07;100673.47;213826;1274;139557;-64
2022/08/08 06:17:00;;;;;;;5.30;2.30;;;;;;;22.30;59.84;100678.87;214471;1274;140271;-65
2022/08/08 06:22:05;;;;;;;4.80;2.40;;;;;;;21.73;59.13;100678.19;214411;1274;139550;-64
2022/08/08 06:27:56;;;;;;;3.30;2.10;;;;;;;21.36;59.57;100679.33;214076;1274;139605;-64
2022/08/08 06:33:06;;;;;;;2.90;1.60;;;;;;;21.22;58.92;100684.36;215275;1274;140208;-64
2022/08/08 06:38:16;;;;;;;6.80;2.40;;;;;;;20.94;58.89;100688.64;213654;1274;139738;-65
2022/08/08 06:43:25;;;;;;;3.30;1.50;;;;;;;20.77;59.21;100689.72;215150;1274;140021;-65
2022/08/08 06:48:37;;;;;;;1.90;1.40;;;;;;;20.67;58.60;100693.52;214130;1274;140070;-65
2022/08/08 06:53:41;;;;;;;6.00;1.40;;;;;;;20.60;58.28;100694.52;214942;1274;140234;-64
2022/08/08 06:58:58;;;;;;;2.60;1.90;;;;;;;20.54;57.86;100694.15;216224;1274;141255;-64
2022/08/08 07:04:15;;;;;;;10.70;2.10;;;;;;;21.61;57.13;100692.09;216172;1274;139834;-64
2022/08/08 07:09:55;;;;;;;1.80;1.40;;;;;;;23.99;55.34;100687.94;215995;1274;140630;-65
2022/08/08 07:15:06;;;;;;;1.90;1.40;;;;;;;26.32;53.09;100695.83;214355;1274;139411;-64
2022/08/08 07:20:41;;;;;;;7.80;1.40;;;;;;;27.61;50.35;100696.68;215387;1274;139666;-64
2022/08/08 07:25:57;;;;;;;1.90;1.70;;;;;;;28.35;48.85;100695.16;214412;1274;139709;-64
2022/08/08 07:31:03;;;;;;;1.80;1.10;;;;;;;28.89;47.14;100696.48;214729;1273;141101;-63
2022/08/08 07:36:09;;;;;;;4.40;1.30;;;;;;;29.22;45.03;100697.98;214499;1274;141064;-65
2022/08/08 07:41:18;;;;;;;6.00;1.60;;;;;;;29.31;43.88;100700.32;214805;1274;141458;-64
2022/08/08 07:46:27;;;;;;;2.10;1.20;;;;;;;29.07;43.26;100699.82;214242;1274;140723;-64
2022/08/08 07:51:34;;;;;;;1.80;1.30;;;;;;;28.69;41.88;100706.50;214493;1274;139934;-64
2022/08/08 07:57:15;;;;;;;4.00;1.00;;;;;;;28.40;42.15;100707.06;214710;1275;140724;-64
2022/08/08 08:02:25;;;;;;;0.80;0.80;;;;;;;28.44;42.17;100710.67;213650;1274;140082;-64
2022/08/08 08:07:41;;;;;;;1.80;0.90;;;;;;;28.12;41.41;100714.27;214205;1274;141318;-63
2022/08/08 08:13:19;;;;;;;2.10;1.30;;;;;;;27.35;41.51;100713.21;213577;1274;140588;-64
2022/08/08 08:18:51;;;;;;;2.00;1.10;;;;;;;27.20;42.35;100706.35;214487;1274;221893;-64
2022/08/08 08:23:58;;;;;;;2.60;1.20;;;;;;;27.50;42.28;100707.94;214673;1274;139641;-65
2022/08/08 08:29:06;;;;;;;1.20;1.10;;;;;;;27.60;40.95;100712.73;214696;1274;140757;-64
2022/08/08 08:34:16;;;;;;;3.30;1.30;;;;;;;27.51;40.76;100710.10;214701;1274;140305;-65
2022/08/08 08:39:23;;;;;;;1.80;1.70;;;;;;;27.76;41.04;100705.51;215217;1273;140955;-65
2022/08/08 08:44:51;;;;;;;1.70;1.40;;;;;;;27.77;40.49;100708.87;214171;1274;163879;-65
2022/08/08 08:49:55;;;;;;;8.20;1.60;;;;;;;26.87;39.88;100712.48;215249;1274;141763;-64
2022/08/08 08:55:00;;;;;;;1.70;1.00;;;;;;;26.26;40.11;100713.21;216206;1274;140968;-65
2022/08/08 09:00:05;;;;;;;1.40;1.20;;;;;;;25.68;40.26;100709.39;216306;1274;140351;-65
2022/08/08 09:05:21;;;;;;;6.00;1.00;;;;;;;25.54;41.28;100704.92;215805;1274;139631;-64
2022/08/08 09:10:46;;;;;;;;;;;;;;;25.58;41.66;100705.40;216251;1274;140251;-65
2022/08/08 09:15:50;;;;;;;2.50;1.30;;;;;;;25.53;40.98;100709.25;214558;1274;127396;-65
2022/08/08 09:21:06;;;;;;;1.80;1.20;;;;;;;25.73;42.05;100698.83;215971;1274;140065;-65
2022/08/08 09:26:51;;;;;;;1.40;1.00;;;;;;;26.08;41.53;100701.77;215047;1274;140978;-65
2022/08/08 09:32:04;;;;;;;3.20;1.60;;;;;;;26.27;40.97;100695.44;215238;1274;139637;-66
2022/08/08 09:37:18;;;;;;;0.90;0.90;;;;;;;26.61;41.08;100689.63;213568;1274;139708;-65
2022/08/08 09:42:47;;;;;;;2.10;1.50;;;;;;;26.77;40.88;100687.53;214158;1273;139714;-65
2022/08/08 09:47:57;;;;;;;1.70;1.20;;;;;;;26.61;40.19;100688.50;214785;1275;139318;-65
2022/08/08 09:53:11;;;;;;;1.40;1.30;;;;;;;26.85;39.93;100684.81;214788;1274;141938;-65
2022/08/08 09:58:43;;;;;;;1.50;1.40;;;;;;;27.09;39.49;100684.98;213990;1274;140227;-65
2022/08/08 10:03:49;;;;;;;1.40;1.10;;;;;;;27.10;39.27;100679.76;213770;1275;140185;-65
2022/08/08 10:08:58;;;;;;;2.50;1.40;;;;;;;26.96;39.25;100685.54;214303;1274;140016;-65
2022/08/08 10:14:06;;;;;;;1.60;1.50;;;;;;;27.05;39.72;100685.80;213480;1274;139794;-65
2022/08/08 10:19:38;;;;;;;0.90;0.90;;;;;;;27.37;39.34;100683.12;213772;1274;139995;-65
2022/08/08 10:25:06;;;;;;;0.90;0.90;;;;;;;27.26;39.01;100679.10;214111;1274;139314;-64
2022/08/08 10:30:21;;;;;;;1.60;1.10;;;;;;;26.94;39.31;100675.67;214252;1275;139908;-65
2022/08/08 10:35:55;;;;;;;1.60;1.50;;;;;;;27.25;39.06;100674.73;215203;1274;139802;-65
2022/08/08 10:41:24;;;;;;;1.30;1.20;;;;;;;27.53;38.43;100671.53;214071;1274;141410;-65
2022/08/08 10:46:52;;;;;;;2.40;0.90;;;;;;;27.79;38.39;100666.02;215054;1274;139952;-65
2022/08/08 10:51:56;;;;;;;4.80;1.60;;;;;;;28.07;38.17;100661.13;215496;1274;139694;-65
2022/08/08 10:57:07;;;;;;;2.00;1.10;;;;;;;28.15;37.64;100665.00;215023;1274;151236;-65
2022/08/08 11:02:14;;;;;;;1.30;1.20;;;;;;;27.71;37.26;100667.52;216177;1274;141133;-67
2022/08/08 11:07:30;;;;;;;2.10;1.30;;;;;;;27.12;37.82;100663.52;216083;1274;139952;-67
2022/08/08 11:12:59;;;;;;;1.30;1.20;;;;;;;26.49;38.48;100654.20;216070;1274;142004;-67
2022/08/08 11:18:25;;;;;;;1.00;0.90;;;;;;;26.46;38.76;100652.73;213698;1274;140077;-65
2022/08/08 11:23:33;;;;;;;0.80;0.80;;;;;;;26.79;38.45;100646.70;214942;1274;140248;-66
2022/08/08 11:28:40;;;;;;;1.00;0.90;;;;;;;27.30;37.93;100648.21;214817;1274;139664;-65
2022/08/08 11:33:49;;;;;;;7.00;1.20;;;;;;;27.70;37.71;100652.71;214608;1274;142714;-65
2022/08/08 11:39:07;;;;;;;2.40;1.10;;;;;;;28.16;37.66;100649.93;214691;1274;141022;-65
2022/08/08 11:44:18;;;;;;;4.20;0.90;;;;;;;28.27;36.38;100650.91;214273;1274;140109;-65
2022/08/08 11:49:34;;;;;;;6.30;1.50;;;;;;;27.64;35.83;100651.44;214792;1274;151259;-65
2022/08/08 11:54:46;;;;;;;8.20;1.50;;;;;;;27.02;36.40;100649.01;213745;1274;141136;-65
2022/08/08 11:59:52;;;;;;;0.90;0.80;;;;;;;26.71;36.75;100651.45;214309;1273;141431;-65
2022/08/08 12:05:10;;;;;;;10.30;1.80;;;;;;;26.44;37.75;100646.39;213366;1274;141087;-65
2022/08/08 12:10:17;;;;;;;1.90;1.00;;;;;;;26.20;38.57;100646.57;214218;1273;141042;-65
2022/08/08 12:15:34;;;;;;;1.80;0.90;;;;;;;25.98;38.45;100647.04;214314;1274;140728;-65
2022/08/08 12:20:50;;;;;;;0.90;0.80;;;;;;;25.85;38.52;100649.91;213908;1274;151728;-65
2022/08/08 12:25:56;;;;;;;3.90;1.30;;;;;;;25.95;38.27;100644.37;213759;1274;140433;-64
2022/08/08 12:31:09;;;;;;;1.00;1.00;;;;;;;26.29;38.56;100641.96;214399;1274;141458;-65
2022/08/08 12:36:16;;;;;;;1.00;1.00;;;;;;;26.83;38.24;100646.17;215887;1274;139971;-66
2022/08/08 12:41:25;;;;;;;0.90;0.90;;;;;;;27.25;37.48;100644.30;215972;1273;141039;-64
2022/08/08 12:46:55;;;;;;;4.70;1.40;;;;;;;27.39;36.87;100638.92;216095;1274;139541;-65
2022/08/08 12:52:06;;;;;;;1.20;1.10;;;;;;;27.61;36.88;100639.02;216072;1273;141271;-65
2022/08/08 12:57:30;;;;;;;2.50;0.70;;;;;;;27.73;36.69;100630.55;215605;1275;139907;-65
2022/08/08 13:02:41;;;;;;;1.40;0.80;;;;;;;27.91;36.61;100633.23;216070;1273;140772;-65
2022/08/08 13:07:55;;;;;;;1.30;1.20;;;;;;;27.86;35.59;100631.30;215337;1273;140734;-64
2022/08/08 13:13:08;;;;;;;1.30;1.20;;;;;;;27.76;35.96;100632.22;215883;1274;140677;-65
2022/08/08 13:18:14;;;;;;;3.00;1.30;;;;;;;27.71;35.63;100629.10;216251;1272;140117;-65
2022/08/08 13:23:32;;;;;;;1.30;1.10;;;;;;;27.43;35.82;100625.45;215218;1274;140244;-66
2022/08/08 13:28:45;;;;;;;2.80;1.10;;;;;;;27.32;36.44;100621.80;215137;1274;140090;-64
2022/08/08 13:33:52;;;;;;;1.90;1.30;;;;;;;27.44;36.18;100615.12;214361;1274;139921;-65
2022/08/08 13:38:57;;;;;;;1.90;1.20;;;;;;;27.46;36.03;100611.92;214937;1274;230113;-64
2022/08/08 13:44:08;;;;;;;3.10;1.50;;;;;;;27.41;36.42;100610.35;214765;1277;140897;-65
2022/08/08 13:49:17;;;;;;;2.20;1.00;;;;;;;27.63;36.14;100612.10;212668;1274;2021390;-64
2022/08/08 13:54:44;;;;;;;1.00;0.70;;;;;;;27.86;35.79;100609.44;214253;1274;140191;-64
2022/08/08 14:00:04;;;;;;;1.00;1.00;;;;;;;28.01;36.18;100606.63;213972;1274;140349;-63
2022/08/08 14:05:13;;;;;;;0.90;0.80;;;;;;;27.98;35.22;100603.13;213941;1274;140431;-64
2022/08/08 14:10:25;;;;;;;2.40;1.20;;;;;;;27.86;34.98;100604.77;213050;1274;139573;-65
2022/08/08 14:15:39;;;;;;;0.90;0.90;;;;;;;27.42;34.90;100609.09;214437;1274;141544;-64
2022/08/08 14:21:01;;;;;;;2.80;0.80;;;;;;;26.98;35.55;100614.27;214342;1273;141195;-64
2022/08/08 14:26:05;;;;;;;4.40;1.60;;;;;;;26.62;36.27;100613.23;216209;1274;140621;-64
2022/08/08 14:31:13;;;;;;;5.50;1.30;;;;;;;26.30;36.61;100613.22;214657;1274;139627;-64
2022/08/08 14:36:34;;;;;;;2.50;1.20;;;;;;;25.97;37.05;100614.23;216186;1274;140371;-64
2022/08/08 14:41:43;;;;;;;2.10;1.00;;;;;;;25.69;37.40;100608.27;216112;1274;140002;-64
2022/08/08 14:46:57;;;;;;;0.90;0.90;;;;;;;25.78;37.30;100606.45;216040;1274;141510;-65
2022/08/08 14:52:07;;;;;;;1.70;1.30;;;;;;;25.89;36.85;100605.51;216105;1274;139855;-64
2022/08/08 14:57:13;;;;;;;0.90;0.90;;;;;;;25.86;36.52;100602.09;215746;1274;139472;-67
2022/08/08 15:02:23;;;;;;;2.10;1.40;;;;;;;25.88;37.22;100597.44;215865;1274;141503;-67
2022/08/08 15:07:27;;;;;;;2.90;1.30;;;;;;;25.90;37.18;100594.88;216011;1274;141798;-67
2022/08/08 15:12:43;;;;;;;0.80;0.80;;;;;;;25.90;36.91;100595.10;216101;1274;140050;-67
2022/08/08 15:17:47;;;;;;;1.50;0.80;;;;;;;25.88;35.91;100594.65;215412;1272;140475;-67
2022/08/08 15:22:51;;;;;;;2.40;0.70;;;;;;;25.84;35.71;100595.36;214435;1274;139718;-65
2022/08/08 15:27:56;;;;;;;1.50;1.10;;;;;;;25.60;35.85;100602.73;214392;1274;140454;-64
2022/08/08 15:33:21;;;;;;;1.70;1.10;;;;;;;25.41;35.97;100598.13;214516;1274;139497;-64
2022/08/08 15:38:47;;;;;;;1.50;1.20;;;;;;;25.29;35.94;100596.00;214777;1274;139586;-64
2022/08/08 15:43:53;;;;;;;1.10;1.00;;;;;;;25.18;36.14;100596.85;213254;1274;141546;-64
2022/08/08 15:49:03;;;;;;;2.00;1.00;;;;;;;25.14;36.57;100595.80;213739;1274;139255;-65
2022/08/08 15:54:07;;;;;;;1.00;1.00;;;;;;;25.07;36.78;100593.70;213843;1274;139839;-63
2022/08/08 15:59:30;;;;;;;4.20;1.10;;;;;;;25.00;36.63;100594.81;215254;1275;140475;-64
2022/08/08 16:04:54;;;;;;;5.90;1.20;;;;;;;24.93;36.95;100593.10;214630;1275;140478;-64
2022/08/08 16:10:00;;;;;;;2.60;1.00;;;;;;;24.84;36.83;100597.21;214463;1276;140473;-63
2022/08/08 16:15:25;;;;;;;1.20;1.00;;;;;;;24.80;37.15;100593.88;214475;1274;139687;-64
2022/08/08 16:20:34;;;;;;;2.40;1.20;;;;;;;24.74;37.66;100595.45;214345;1274;139400;-64
2022/08/08 16:25:39;;;;;;;1.10;1.00;;;;;;;24.69;37.80;100593.16;215725;1274;139353;-63
2022/08/08 16:30:56;;;;;;;1.70;1.20;;;;;;;24.59;37.65;100594.86;214178;1271;139238;-63
2022/08/08 16:36:06;;;;;;;1.50;1.20;;;;;;;24.44;38.13;100589.46;215828;1274;140782;-63
2022/08/08 16:41:14;;;;;;;8.70;1.70;;;;;;;24.35;38.27;100591.59;215951;1274;141478;-64
2022/08/08 16:46:25;;;;;;;1.70;1.10;;;;;;;24.25;38.36;100593.72;216132;1274;140105;-64
2022/08/08 16:51:48;;;;;;;2.10;0.80;;;;;;;24.12;38.40;100591.98;216147;1274;140738;-64
2022/08/08 16:57:12;;;;;;;4.10;1.60;;;;;;;23.99;38.65;100599.38;216079;1274;140527;-63
2022/08/08 17:02:36;;;;;;;2.40;1.80;;;;;;;23.84;38.92;100601.64;216057;1274;140412;-63
2022/08/08 17:07:43;;;;;;;1.30;1.20;;;;;;;23.68;39.61;100608.20;216032;1274;139834;-62
2022/08/08 17:12:53;;;;;;;1.40;1.20;;;;;;;23.56;39.92;100610.80;216047;1274;139462;-64
2022/08/08 17:17:57;;;;;;;2.50;1.10;;;;;;;23.40;40.34;100614.33;215597;1275;140577;-64
2022/08/08 17:23:07;;;;;;;1.70;1.30;;;;;;;23.24;40.87;100618.63;215850;1274;139594;-63
2022/08/08 17:28:32;;;;;;;1.80;1.00;;;;;;;23.02;42.33;100617.95;215856;1274;140189;-62
2022/08/08 17:33:40;;;;;;;2.90;1.20;;;;;;;22.77;43.32;100621.96;213773;1275;142733;-62
2022/08/08 17:39:04;;;;;;;3.00;1.50;;;;;;;22.50;44.20;100621.25;213003;1276;142160;-62
2022/08/08 17:44:28;;;;;;;1.70;1.40;;;;;;;22.21;44.98;100621.23;214945;1274;141287;-66
2022/08/08 17:49:33;;;;;;;2.50;1.40;;;;;;;21.94;45.60;100627.39;213910;1274;141102;-64
2022/08/08 17:54:45;;;;;;;2.10;1.40;;;;;;;21.67;46.31;100629.52;214335;1274;140686;-65
2022/08/08 17:59:58;;;;;;;3.30;1.70;;;;;;;21.39;47.05;100632.60;214882;1274;142270;-64
2022/08/08 18:05:04;;;;;;;1.30;1.30;;;;;;;21.11;47.70;100642.29;214391;1275;141800;-64
2022/08/08 18:10:10;;;;;;;3.30;1.40;;;;;;;20.81;48.18;100644.01;215306;1274;141584;-64
2022/08/08 18:15:13;;;;;;;1.40;1.30;;;;;;;20.53;48.94;100653.86;212991;1276;160710;-65
2022/08/08 18:20:22;;;;;;;1.20;1.10;;;;;;;20.27;49.73;100660.39;215130;1274;140891;-63
2022/08/08 18:25:48;;;;;;;2.60;1.90;;;;;;;19.97;50.66;100668.91;214541;1274;141274;-64
2022/08/08 18:30:54;;;;;;;2.00;1.40;;;;;;;19.69;51.04;100673.23;215159;1274;141330;-64
2022/08/08 18:36:04;;;;;;;1.80;1.50;;;;;;;19.42;51.73;100678.25;216203;1273;141070;-64
2022/08/08 18:41:25;;;;;;;2.10;1.70;;;;;;;19.15;52.74;100683.05;216001;1273;141510;-63
2022/08/08 18:46:53;;;;;;;1.20;1.20;;;;;;;18.93;53.46;100689.27;215891;1275;141201;-63
2022/08/08 18:52:00;;;;;;;1.80;1.60;;;;;;;18.71;53.86;100691.52;216219;1274;140221;-63
2022/08/08 18:57:07;;;;;;;3.10;1.30;;;;;;;18.42;54.68;100694.23;216190;1274;141592;-63
2022/08/08 19:02:15;;;;;;;1.50;1.40;;;;;;;18.24;55.44;100703.94;215868;1274;140819;-64
2022/08/08 19:07:31;;;;;;;1.50;1.50;;;;;;;18.03;55.66;100708.33;215985;1274;141962;-63
2022/08/08 19:12:40;;;;;;;1.90;1.50;;;;;;;17.66;56.26;100709.40;213319;1274;141627;-63
2022/08/08 19:17:55;;;;;;;1.70;1.60;;;;;;;17.33;57.15;100711.10;214830;1275;142770;-63
2022/08/08 19:23:20;;;;;;;2.00;1.50;;;;;;;17.08;58.03;100710.00;214710;1274;140037;-64
2022/08/08 19:28:26;;;;;;;1.50;1.40;;;;;;;17.03;58.36;100712.64;215135;1274;140596;-64
2022/08/08 19:33:32;;;;;;;3.60;1.90;;;;;;;17.00;58.80;100716.91;216069;1274;141378;-64
2022/08/08 19:38:58;;;;;;;2.30;2.10;;;;;;;16.98;58.99;100717.23;215508;1274;141143;-64
2022/08/08 19:44:02;;;;;;;2.20;2.00;;;;;;;16.95;59.02;100722.95;213717;1274;141327;-65
2022/08/08 19:49:26;;;;;;;3.00;1.80;;;;;;;16.83;59.33;100730.89;214890;1274;142522;-64
2022/08/08 19:54:39;;;;;;;2.20;1.50;;;;;;;16.52;59.69;100733.86;215588;1274;140213;-64
2022/08/08 19:59:46;;;;;;;2.00;1.90;;;;;;;16.24;60.22;100735.77;213597;1274;140322;-64
2022/08/08 20:04:52;;;;;;;2.40;2.30;;;;;;;16.07;60.86;100742.45;214590;1274;140116;-65
2022/08/08 20:10:00;;;;;;;2.20;1.90;;;;;;;15.92;61.11;100743.08;213197;1277;142045;-63
2022/08/08 20:15:05;;;;;;;2.90;2.10;;;;;;;15.63;61.61;100746.20;214630;1274;142272;-66
2022/08/08 20:20:20;;;;;;;3.00;2.40;;;;;;;15.46;62.41;100750.41;214424;1274;237495;-64
2022/08/08 20:25:24;;;;;;;4.40;3.00;;;;;;;15.51;62.95;100749.85;215152;1274;140452;-64
2022/08/08 20:30:33;;;;;;;4.30;4.00;;;;;;;15.59;63.10;100748.13;215792;1274;142368;-63
2022/08/08 20:35:58;;;;;;;8.00;4.20;;;;;;;15.63;62.86;100749.48;215592;1274;141054;-63
2022/08/08 20:41:10;;;;;;;4.10;2.80;;;;;;;15.58;62.89;100752.13;215870;1274;140380;-64
2022/08/08 20:46:21;;;;;;;4.40;3.00;;;;;;;15.32;63.01;100749.88;215837;1276;139780;-63
2022/08/08 20:51:28;;;;;;;4.70;3.30;;;;;;;15.08;63.58;100747.66;215156;1274;141170;-64
2022/08/08 20:56:36;;;;;;;9.50;3.60;;;;;;;15.07;63.97;100746.73;215816;1275;140471;-64
2022/08/08 21:02:00;;;;;;;18.80;3.90;;;;;;;15.17;64.23;100743.65;215544;1274;141062;-64
2022/08/08 21:07:10;;;;;;;2.60;2.40;;;;;;;15.15;64.35;100745.91;216006;1274;140753;-63
2022/08/08 21:12:18;;;;;;;3.10;2.90;;;;;;;14.96;64.39;100748.34;215630;1276;139992;-65
2022/08/08 21:17:35;;;;;;;4.00;3.70;;;;;;;14.78;64.68;100749.49;216123;1274;140186;-65
2022/08/08 21:22:40;;;;;;;4.60;3.20;;;;;;;14.72;65.01;100746.77;215318;1274;139987;-63
2022/08/08 21:27:50;;;;;;;4.10;3.40;;;;;;;14.78;65.11;100749.00;215784;1274;140061;-63
2022/08/08 21:33:15;;;;;;;8.00;4.20;;;;;;;14.72;65.28;100749.79;214847;1275;140797;-64
2022/08/08 21:38:21;;;;;;;5.00;3.40;;;;;;;14.61;65.66;100751.23;215056;1274;141068;-66
2022/08/08 21:43:29;;;;;;;5.10;3.00;;;;;;;14.63;66.05;100751.23;214865;1274;141048;-65
2022/08/08 21:48:38;;;;;;;4.50;4.10;;;;;;;14.57;65.88;100752.45;214532;1274;142969;-62
2022/08/08 21:53:46;;;;;;;5.10;4.70;;;;;;;14.41;66.33;100754.37;214519;1274;140764;-62
2022/08/08 21:59:10;;;;;;;7.70;3.50;;;;;;;14.40;66.55;100755.16;215152;1274;141044;-62
2022/08/08 22:04:17;;;;;;;10.40;7.10;;;;;;;14.42;66.55;100756.13;215072;1274;143374;-64
2022/08/08 22:09:21;;;;;;;4.70;3.70;;;;;;;14.32;66.64;100751.66;215403;1274;141740;-63
2022/08/08 22:14:39;;;;;;;6.50;4.70;;;;;;;14.16;66.58;100756.34;215356;1275;139766;-62
2022/08/08 22:19:45;;;;;;;5.70;4.70;;;;;;;14.13;67.16;100752.67;213228;1276;209362;-64
2022/08/08 22:25:08;;;;;;;10.30;5.40;;;;;;;14.12;67.01;100752.70;215330;1274;140381;-64
2022/08/08 22:30:27;;;;;;;8.20;6.10;;;;;;;13.99;67.21;100756.61;215889;1274;140562;-63
2022/08/08 22:35:33;;;;;;;7.30;6.50;;;;;;;13.89;67.54;100755.20;215972;1274;141343;-63
2022/08/08 22:40:56;;;;;;;7.80;5.80;;;;;;;13.93;67.77;100751.13;215566;1274;139801;-63
2022/08/08 22:46:02;;;;;;;6.20;5.70;;;;;;;13.99;67.91;100752.61;216077;1274;140834;-63
2022/08/08 22:51:06;;;;;;;10.20;5.40;;;;;;;13.91;67.67;100756.20;215968;1274;140400;-63
2022/08/08 22:56:10;;;;;;;7.30;5.10;;;;;;;13.81;68.35;100755.39;215800;1274;139975;-64
2022/08/08 23:01:16;;;;;;;6.80;6.20;;;;;;;13.87;68.42;100752.31;215743;1274;140445;-64
2022/08/08 23:06:40;;;;;;;13.20;5.70;;;;;;;13.84;68.20;100752.35;214865;1274;141666;-62
2022/08/08 23:11:47;;;;;;;9.00;4.20;;;;;;;13.69;68.25;100750.50;215692;1274;141716;-64
2022/08/08 23:17:13;;;;;;;9.70;5.20;;;;;;;13.59;68.63;100752.71;215268;1274;140295;-62
2022/08/08 23:22:19;;;;;;;4.50;4.10;;;;;;;13.43;68.65;100751.43;215523;1274;140433;-62
2022/08/08 23:27:25;;;;;;;5.00;4.50;;;;;;;13.35;69.50;100755.41;214435;1274;152037;-62
2022/08/08 23:32:49;;;;;;;5.90;4.60;;;;;;;13.40;69.51;100755.07;213714;1274;142561;-63
2022/08/08 23:37:53;;;;;;;8.40;5.00;;;;;;;13.40;69.60;100752.39;214158;1273;141532;-63
2022/08/08 23:43:05;;;;;;;5.90;5.00;;;;;;;13.43;70.13;100751.64;214758;1274;141134;-62
2022/08/08 23:48:10;;;;;;;5.00;4.50;;;;;;;13.53;70.34;100751.52;215198;1274;141423;-62
2022/08/08 23:53:35;;;;;;;8.10;5.00;;;;;;;13.60;70.47;100752.13;215475;1273;139883;-62